Time;durP1;ratioP1;P1;durP2;ratioP2;P2;SDS_P1;SDS_P2;PMS_P1;PMS_P2;Temp;Humidity;BMP_temperature;BMP_pressure;BME280_temperature;BME280_humidity;BME280_pressure;Samples;Min_cycle;Max_cycle;Signal;HPM_P1;HPM_P2
2021/01/03 00:02:09;;;;;;;;;;;;;;;9.25;35.92;101723.34;4936287;29;19951;-75
2021/01/03 00:04:36;;;;;;;;;;;;;;;9.22;36.31;101718.94;4938839;29;19937;-75
2021/01/03 00:07:03;;;;;;;;;;;;;;;9.22;35.98;101713.66;4934747;29;19931;-75
2021/01/03 00:09:30;;;;;;;;;;;;;;;9.20;35.75;101722.47;4914070;29;20581;-75
2021/01/03 00:11:58;;;;;;;;;;;;;;;9.21;35.39;101727.75;4917514;29;19931;-75
2021/01/03 00:14:30;;;;;;;;;;;;;;;9.19;35.79;101726.88;4936171;29;20373;-75
2021/01/03 00:16:59;;;;;;;;;;;;;;;9.01;36.89;101730.50;4937863;29;19951;-75
2021/01/03 00:19:26;;;;;;;;;;;;;;;8.85;38.31;101735.00;4938408;29;19934;-76
2021/01/03 00:21:54;;;;;;;;;;;;;;;8.83;39.50;101736.75;4934198;29;19954;-75
2021/01/03 00:24:21;;;;;;;;;;;;;;;8.88;39.47;101731.47;4931044;29;19934;-76
2021/01/03 00:26:48;;;;;;;;;;;;;;;8.96;38.57;101730.50;4924160;29;19942;-75
2021/01/03 00:29:18;;;;;;;;;;;;;;;9.04;38.27;101737.53;4938490;29;19942;-75
2021/01/03 00:31:46;;;;;;;;;;;;;;;9.08;37.42;101737.50;4936285;29;19927;-76
2021/01/03 00:34:13;;;;;;;;;;;;;;;9.14;36.85;101739.25;4933592;29;20324;-75
2021/01/03 00:36:40;;;;;;;;;;;;;;;9.22;36.86;101747.09;4935821;29;19927;-75
2021/01/03 00:39:08;;;;;;;;;;;;;;;9.28;36.75;101747.97;4933466;29;19966;-75
2021/01/03 00:41:36;;;;;;;;;;;;;;;9.29;35.99;101751.47;4937990;29;19927;-75
2021/01/03 00:44:03;;;;;;;;;;;;;;;9.35;36.69;101742.63;4936469;29;19935;-75
2021/01/03 00:46:31;;;;;;;;;;;;;;;9.44;35.81;101746.09;4935177;29;20340;-76
2021/01/03 00:48:58;;;;;;;;;;;;;;;9.45;36.34;101752.25;4937643;29;19930;-75
2021/01/03 00:51:26;;;;;;;;;;;;;;;9.48;35.71;101746.94;4918599;29;19990;-75
2021/01/03 00:53:53;;;;;;;;;;;;;;;9.54;35.50;101748.66;4933307;29;19954;-75
2021/01/03 00:56:20;;;;;;;;;;;;;;;9.56;35.88;101750.41;4936308;29;19931;-75
2021/01/03 00:58:47;;;;;;;;;;;;;;;9.61;35.39;101760.94;4938776;29;19927;-75
2021/01/03 01:01:14;;;;;;;;;;;;;;;9.60;35.52;101761.81;4934535;29;20033;-75
2021/01/03 01:03:42;;;;;;;;;;;;;;;9.67;35.43;101760.03;4927242;29;19927;-75
2021/01/03 01:06:09;;;;;;;;;;;;;;;9.69;35.31;101766.16;4913283;29;19931;-75
2021/01/03 01:08:36;;;;;;;;;;;;;;;9.70;35.04;101768.78;4934669;29;19931;-76
2021/01/03 01:11:04;;;;;;;;;;;;;;;9.75;35.46;101769.63;4936577;29;19982;-75
2021/01/03 01:13:31;;;;;;;;;;;;;;;9.74;35.41;101773.16;4937393;29;19935;-75
2021/01/03 01:15:58;;;;;;;;;;;;;;;9.67;36.55;101767.97;4931983;29;19958;-75
2021/01/03 01:18:26;;;;;;;;;;;;;;;9.49;37.36;101779.53;4932083;29;20277;-75
2021/01/03 01:20:54;;;;;;;;;;;;;;;9.41;38.60;101772.50;4930950;29;19970;-76
2021/01/03 01:23:21;;;;;;;;;;;;;;;9.40;39.02;101781.34;4935337;29;19935;-76
2021/01/03 01:25:50;;;;;;;;;;;;;;;9.51;37.75;101781.25;4922476;29;19950;-76
2021/01/03 01:28:16;;;;;;;;;;;;;;;9.59;37.57;101778.56;4936657;29;19935;-76
2021/01/03 01:30:43;;;;;;;;;;;;;;;9.62;37.49;101774.13;4913777;29;20013;-76
2021/01/03 01:33:11;;;;;;;;;;;;;;;9.68;36.87;101767.94;4921596;29;19970;-76
2021/01/03 01:35:37;;;;;;;;;;;;;;;9.70;36.45;101770.56;4931362;29;19955;-76
2021/01/03 01:38:07;;;;;;;;;;;;;;;9.70;36.39;101768.78;4935511;29;19926;-76
2021/01/03 01:40:36;;;;;;;;;;;;;;;9.73;36.48;101767.88;4918498;29;20062;-77
2021/01/03 01:43:04;;;;;;;;;;;;;;;9.72;35.89;101769.66;4935070;29;19938;-76
2021/01/03 01:45:32;;;;;;;;;;;;;;;9.73;35.99;101767.88;4934818;29;19962;-77
2021/01/03 01:48:01;;;;;;;;;;;;;;;9.74;35.82;101772.28;4933637;29;19937;-77
2021/01/03 01:50:32;;;;;;;;;;;;;;;9.72;35.52;101767.03;4935164;29;20073;-77
2021/01/03 01:53:00;;;;;;;;;;;;;;;9.71;35.85;101764.41;4932230;29;19930;-77
2021/01/03 01:55:31;;;;;;;;;;;;;;;9.73;35.67;101762.59;4935417;29;20411;-76
2021/01/03 01:58:02;;;;;;;;;;;;;;;9.71;35.42;101764.41;4934362;29;20503;-77
2021/01/03 02:00:30;;;;;;;;;;;;;;;9.66;35.62;101772.34;4932469;29;19927;-77
2021/01/03 02:03:00;;;;;;;;;;;;;;;9.67;35.23;101770.59;4930302;29;20848;-76
2021/01/03 02:05:31;;;;;;;;;;;;;;;9.67;35.48;101765.31;4937776;29;19935;-77
2021/01/03 02:08:01;;;;;;;;;;;;;;;9.66;35.59;101768.84;4935750;29;19930;-76
2021/01/03 02:10:31;;;;;;;;;;;;;;;9.64;35.10;101772.38;4934201;29;19935;-76
2021/01/03 02:13:04;;;;;;;;;;;;;;;9.63;35.52;101769.75;4937409;29;19931;-76
2021/01/03 02:15:31;;;;;;;;;;;;;;;9.57;36.05;101767.13;4931821;29;19931;-76
2021/01/03 02:17:59;;;;;;;;;;;;;;;9.37;36.97;101780.47;4931684;29;19931;-76
2021/01/03 02:20:32;;;;;;;;;;;;;;;9.26;38.08;101770.84;4933828;29;19938;-77
2021/01/03 02:23:03;;;;;;;;;;;;;;;9.21;39.04;101777.91;4921255;29;19931;-76
2021/01/03 02:25:31;;;;;;;;;;;;;;;9.28;38.35;101774.38;4924712;29;19941;-77
2021/01/03 02:28:08;;;;;;;;;;;;;;;9.35;37.50;101775.19;4934581;29;19994;-77
2021/01/03 02:30:35;;;;;;;;;;;;;;;9.37;37.32;101781.34;4929537;29;20021;-77
2021/01/03 02:33:07;;;;;;;;;;;;;;;9.41;36.84;101780.44;4934920;29;19931;-77
2021/01/03 02:35:34;;;;;;;;;;;;;;;9.41;36.92;101779.56;4914710;29;19931;-76
2021/01/03 02:38:01;;;;;;;;;;;;;;;9.39;36.76;101787.50;4926310;29;19927;-77
2021/01/03 02:40:28;;;;;;;;;;;;;;;9.40;36.33;101788.38;4917819;29;19985;-77
2021/01/03 02:42:56;;;;;;;;;;;;;;;9.40;36.58;101786.63;4934042;29;19955;-77
2021/01/03 02:45:25;;;;;;;;;;;;;;;9.38;35.84;101791.03;4935533;29;19954;-77
2021/01/03 02:47:52;;;;;;;;;;;;;;;9.38;35.74;101785.75;4932400;29;19930;-76
2021/01/03 02:50:21;;;;;;;;;;;;;;;9.37;35.75;101788.41;4935544;29;20049;-77
2021/01/03 02:52:49;;;;;;;;;;;;;;;9.34;35.46;101783.09;4934617;29;19961;-77
2021/01/03 02:55:17;;;;;;;;;;;;;;;9.32;35.66;101788.41;4934706;29;19998;-77
2021/01/03 02:57:44;;;;;;;;;;;;;;;9.31;35.76;101781.34;4914749;29;20666;-77
2021/01/03 03:00:14;;;;;;;;;;;;;;;9.27;35.60;101787.56;4934835;29;19959;-76
2021/01/03 03:02:41;;;;;;;;;;;;;;;9.25;35.93;101784.06;4911919;29;19970;-76
2021/01/03 03:05:09;;;;;;;;;;;;;;;9.22;35.64;101784.06;4935593;29;19942;-77
2021/01/03 03:07:36;;;;;;;;;;;;;;;9.20;35.93;101785.84;4936177;29;19962;-78
2021/01/03 03:10:04;;;;;;;;;;;;;;;9.18;36.01;101787.59;4932561;29;19974;-77
2021/01/03 03:12:31;;;;;;;;;;;;;;;9.15;36.09;101791.13;4914612;29;19935;-77
2021/01/03 03:14:58;;;;;;;;;;;;;;;9.10;35.94;101788.53;4933799;29;19982;-77
2021/01/03 03:17:25;;;;;;;;;;;;;;;8.91;37.91;101793.00;4925484;29;19936;-77
2021/01/03 03:19:52;;;;;;;;;;;;;;;8.79;39.02;101791.28;4934454;29;19942;-76
2021/01/03 03:22:19;;;;;;;;;;;;;;;8.74;39.18;101795.69;4934894;29;19931;-77
2021/01/03 03:24:46;;;;;;;;;;;;;;;8.78;39.54;101796.56;4911776;29;19930;-77
2021/01/03 03:27:13;;;;;;;;;;;;;;;8.83;38.15;101799.19;4930774;29;19942;-77
2021/01/03 03:29:40;;;;;;;;;;;;;;;8.87;38.09;101804.44;4931814;29;19951;-77
2021/01/03 03:32:07;;;;;;;;;;;;;;;8.85;38.03;101794.78;4919951;29;19954;-77
2021/01/03 03:34:35;;;;;;;;;;;;;;;8.87;36.97;101806.22;4931232;29;19941;-77
2021/01/03 03:37:02;;;;;;;;;;;;;;;8.84;36.64;101808.84;4932945;29;19935;-77
2021/01/03 03:39:29;;;;;;;;;;;;;;;8.84;36.62;101804.47;4919169;29;19958;-77
2021/01/03 03:41:57;;;;;;;;;;;;;;;8.83;36.82;101805.34;4937187;29;19998;-77
2021/01/03 03:44:24;;;;;;;;;;;;;;;8.82;36.63;101814.13;4939772;29;20029;-77
2021/01/03 03:46:52;;;;;;;;;;;;;;;8.84;36.32;101817.66;4927631;29;19941;-77
2021/01/03 03:49:20;;;;;;;;;;;;;;;8.85;36.46;101806.22;4914261;29;19938;-77
2021/01/03 03:51:50;;;;;;;;;;;;;;;8.89;36.24;101807.97;4933295;29;19990;-77
2021/01/03 03:54:17;;;;;;;;;;;;;;;8.89;35.98;101810.63;4929434;29;19970;-77
2021/01/03 03:56:48;;;;;;;;;;;;;;;8.94;36.02;101818.50;4935822;29;19931;-77
2021/01/03 03:59:16;;;;;;;;;;;;;;;9.00;36.09;101817.63;4939320;29;19973;-77
2021/01/03 04:01:42;;;;;;;;;;;;;;;9.07;35.17;101828.13;4937649;29;21656;-77
2021/01/03 04:04:09;;;;;;;;;;;;;;;9.08;35.40;101823.72;4935186;29;20003;-77
2021/01/03 04:06:36;;;;;;;;;;;;;;;9.14;35.57;101829.88;4934301;29;19927;-77
2021/01/03 04:09:04;;;;;;;;;;;;;;;9.18;35.12;101829.84;4931374;29;20305;-77
2021/01/03 04:11:31;;;;;;;;;;;;;;;9.25;34.86;101834.22;4936330;29;19941;-77
2021/01/03 04:14:00;;;;;;;;;;;;;;;9.31;35.58;101839.47;4936347;29;19927;-76
2021/01/03 04:16:27;;;;;;;;;;;;;;;9.23;35.95;101836.88;4935238;29;19962;-77
2021/01/03 04:18:54;;;;;;;;;;;;;;;9.09;37.65;101836.91;4936367;29;19931;-77
2021/01/03 04:21:21;;;;;;;;;;;;;;;9.05;38.47;101843.09;4932009;29;19931;-77
2021/01/03 04:23:48;;;;;;;;;;;;;;;9.11;38.87;101832.53;4925576;29;19970;-77
2021/01/03 04:26:16;;;;;;;;;;;;;;;9.28;37.85;101834.19;4936278;29;19931;-77
2021/01/03 04:28:43;;;;;;;;;;;;;;;9.32;37.43;101833.28;4935740;29;19935;-77
2021/01/03 04:31:10;;;;;;;;;;;;;;;9.42;36.86;101834.16;4918902;29;19931;-77
2021/01/03 04:33:40;;;;;;;;;;;;;;;9.42;36.82;101837.66;4937799;29;19934;-77
2021/01/03 04:36:11;;;;;;;;;;;;;;;9.46;36.25;101835.88;4931142;29;19981;-77
2021/01/03 04:38:38;;;;;;;;;;;;;;;9.50;35.98;101832.34;4934580;29;19954;-77
2021/01/03 04:41:05;;;;;;;;;;;;;;;9.54;36.04;101838.47;4927806;29;19935;-77
2021/01/03 04:43:34;;;;;;;;;;;;;;;9.54;35.72;101834.06;4935212;29;19974;-77
2021/01/03 04:46:03;;;;;;;;;;;;;;;9.55;35.70;101835.81;4935963;29;19973;-77
2021/01/03 04:48:31;;;;;;;;;;;;;;;9.57;35.64;101839.34;4914573;29;19946;-77
2021/01/03 04:51:12;;;;;;;;;;;;;;;9.56;35.47;101837.59;4931426;29;20419;-75
2021/01/03 04:53:42;;;;;;;;;;;;;;;9.59;35.48;101840.19;4930432;29;19966;-75
2021/01/03 04:56:19;;;;;;;;;;;;;;;9.60;35.53;101846.34;4936466;29;19931;-75
2021/01/03 04:58:54;;;;;;;;;;;;;;;9.53;35.22;101844.66;4937119;29;19931;-75
2021/01/03 05:01:51;;;;;;;;;;;;;;;9.57;35.15;101847.28;4938096;29;19962;-75
2021/01/03 05:04:36;;;;;;;;;;;;;;;9.58;35.10;101845.50;4935180;29;19994;-75
2021/01/03 05:07:06;;;;;;;;;;;;;;;9.61;34.96;101849.00;4936057;29;20033;-75
2021/01/03 05:09:33;;;;;;;;;;;;;;;9.61;35.00;101843.72;4933703;29;19958;-74
2021/01/03 05:12:04;;;;;;;;;;;;;;;9.60;35.31;101838.44;4935635;29;19933;-75
2021/01/03 05:14:34;;;;;;;;;;;;;;;9.59;35.53;101840.19;4937183;29;19965;-75
2021/01/03 05:17:03;;;;;;;;;;;;;;;9.41;36.63;101841.16;4933668;29;19931;-76
2021/01/03 05:19:30;;;;;;;;;;;;;;;9.29;37.44;101833.31;4931459;29;20500;-75
2021/01/03 05:21:57;;;;;;;;;;;;;;;9.23;38.17;101836.88;4915216;29;19926;-76
2021/01/03 05:24:25;;;;;;;;;;;;;;;9.27;38.47;101838.63;4926983;29;19942;-75
2021/01/03 05:26:52;;;;;;;;;;;;;;;9.36;38.03;101836.81;4934002;29;20010;-75
2021/01/03 05:29:24;;;;;;;;;;;;;;;9.38;37.14;101841.19;4936571;29;19934;-75
2021/01/03 05:31:57;;;;;;;;;;;;;;;9.41;36.53;101850.88;4930776;29;19938;-75
2021/01/03 05:34:35;;;;;;;;;;;;;;;9.39;36.26;101850.00;4930352;29;19932;-75
2021/01/03 05:37:05;;;;;;;;;;;;;;;9.41;36.18;101849.09;4931142;29;19994;-76
2021/01/03 05:39:33;;;;;;;;;;;;;;;9.40;35.80;101849.09;4938093;29;19931;-76
2021/01/03 05:42:05;;;;;;;;;;;;;;;9.37;35.92;101850.00;4936932;29;19951;-76
2021/01/03 05:44:34;;;;;;;;;;;;;;;9.36;35.94;101847.38;4931871;29;19966;-75
2021/01/03 05:47:04;;;;;;;;;;;;;;;9.36;36.11;101864.09;4932705;29;19974;-76
2021/01/03 05:49:31;;;;;;;;;;;;;;;9.35;35.77;101866.72;4935854;29;19937;-75
2021/01/03 05:52:05;;;;;;;;;;;;;;;9.30;35.91;101877.34;4935458;29;19941;-75
2021/01/03 05:54:34;;;;;;;;;;;;;;;9.31;35.47;101876.44;4932836;29;19973;-75
2021/01/03 05:57:05;;;;;;;;;;;;;;;9.33;35.51;101885.22;4933238;29;19941;-75
2021/01/03 05:59:34;;;;;;;;;;;;;;;9.33;35.45;101881.72;4932519;29;19927;-75
2021/01/03 06:02:08;;;;;;;;;;;;;;;9.35;35.68;101879.94;4931288;29;19934;-75
2021/01/03 06:04:35;;;;;;;;;;;;;;;9.34;35.76;101892.28;4933893;29;19930;-75
2021/01/03 06:07:07;;;;;;;;;;;;;;;9.35;35.47;101880.84;4936614;29;19927;-75
2021/01/03 06:09:38;;;;;;;;;;;;;;;9.35;35.22;101878.19;4937688;29;19931;-74
2021/01/03 06:12:09;;;;;;;;;;;;;;;9.39;35.13;101893.13;4931306;29;20139;-76
2021/01/03 06:14:37;;;;;;;;;;;;;;;9.40;34.84;101894.00;4933820;29;19962;-75
2021/01/03 06:17:09;;;;;;;;;;;;;;;9.20;36.96;101883.53;4934883;29;19938;-75
2021/01/03 06:19:37;;;;;;;;;;;;;;;9.06;37.89;101884.47;4933527;29;19974;-75
2021/01/03 06:22:10;;;;;;;;;;;;;;;9.02;38.37;101887.09;4931016;29;19962;-75
2021/01/03 06:24:39;;;;;;;;;;;;;;;9.05;39.00;101889.72;4935891;29;20459;-75
2021/01/03 06:27:12;;;;;;;;;;;;;;;9.14;38.28;101890.59;4935028;29;21059;-75
2021/01/03 06:29:42;;;;;;;;;;;;;;;9.21;37.85;101893.22;4921742;29;19927;-75
2021/01/03 06:32:36;;;;;;;;;;;;;;;9.22;37.25;101897.59;4932316;29;20162;-75
2021/01/03 06:35:08;;;;;;;;;;;;;;;9.23;37.03;101899.34;4888609;29;19934;-74
2021/01/03 06:37:40;;;;;;;;;;;;;;;9.25;36.46;101900.25;4936713;29;19927;-75
2021/01/03 06:40:12;;;;;;;;;;;;;;;9.23;36.23;101905.53;4912808;29;20022;-76
2021/01/03 06:42:51;;;;;;;;;;;;;;;9.22;36.37;101903.75;4930758;29;20002;-75
2021/01/03 06:45:32;;;;;;;;;;;;;;;9.25;35.90;101902.88;4932841;29;19931;-75
2021/01/03 06:48:16;;;;;;;;;;;;;;;9.25;36.43;101911.66;4934586;29;23371;-75
2021/01/03 06:50:56;;;;;;;;;;;;;;;9.25;35.50;101914.31;4933280;29;19998;-75
2021/01/03 06:53:32;;;;;;;;;;;;;;;9.24;35.86;101906.41;4917601;29;19983;-75
2021/01/03 06:56:18;;;;;;;;;;;;;;;9.24;35.81;101915.19;4917038;29;19938;-75
2021/01/03 06:59:06;;;;;;;;;;;;;;;9.29;35.46;101909.91;4916527;29;19951;-75
2021/01/03 07:01:34;;;;;;;;;;;;;;;9.27;35.37;101909.91;4918488;29;19935;-75
2021/01/03 07:04:08;;;;;;;;;;;;;;;9.28;35.77;101916.06;4919768;29;19935;-75
2021/01/03 07:06:36;;;;;;;;;;;;;;;9.30;34.95;101909.88;4917910;29;19986;-75
2021/01/03 07:09:06;;;;;;;;;;;;;;;9.29;35.75;101907.25;4915343;29;19942;-76
2021/01/03 07:11:39;;;;;;;;;;;;;;;9.32;35.30;101914.28;4907778;29;20364;-75
2021/01/03 07:14:06;;;;;;;;;;;;;;;9.34;35.41;101923.06;4909976;29;19935;-74
2021/01/03 07:16:48;;;;;;;;;;;;;;;9.22;36.62;101927.53;4916359;29;20081;-74
2021/01/03 07:19:18;;;;;;;;;;;;;;;9.13;37.94;101928.41;4911247;29;20094;-74
2021/01/03 07:21:46;;;;;;;;;;;;;;;9.13;38.59;101932.84;4910427;29;19935;-74
2021/01/03 07:24:28;;;;;;;;;;;;;;;9.19;38.18;101935.44;4895322;29;19962;-73
2021/01/03 07:27:15;;;;;;;;;;;;;;;9.34;37.82;101931.91;4903841;29;20506;-74
2021/01/03 07:29:49;;;;;;;;;;;;;;;9.49;37.32;101940.66;4886126;29;20770;-74
2021/01/03 07:32:17;;;;;;;;;;;;;;;9.52;36.92;101936.25;4903647;29;20883;-74
2021/01/03 07:34:49;;;;;;;;;;;;;;;9.58;36.36;101943.25;4910259;29;19935;-74
2021/01/03 07:37:19;;;;;;;;;;;;;;;9.63;35.79;101941.47;4905530;29;19942;-74
2021/01/03 07:39:57;;;;;;;;;;;;;;;9.69;35.89;101948.47;4897980;29;20095;-74
2021/01/03 07:42:26;;;;;;;;;;;;;;;9.73;35.93;101947.56;4909062;29;19952;-73
2021/01/03 07:44:53;;;;;;;;;;;;;;;9.76;35.40;101944.94;4909807;29;19942;-74
2021/01/03 07:47:34;;;;;;;;;;;;;;;9.80;35.71;101951.97;4907735;29;19942;-73
2021/01/03 07:50:15;;;;;;;;;;;;;;;9.81;35.69;101956.38;4905140;29;19966;-74
2021/01/03 07:52:44;;;;;;;;;;;;;;;9.80;35.48;101962.53;4917652;29;19934;-74
2021/01/03 07:55:29;;;;;;;;;;;;;;;9.79;35.24;101963.41;4900439;29;19930;-74
2021/01/03 07:57:57;;;;;;;;;;;;;;;9.82;35.51;101962.53;4905135;29;19935;-74
2021/01/03 08:00:25;;;;;;;;;;;;;;;9.82;35.10;101959.88;4909400;29;19973;-76
2021/01/03 08:02:56;;;;;;;;;;;;;;;9.83;35.38;101977.50;4921973;29;19935;-74
2021/01/03 08:05:25;;;;;;;;;;;;;;;9.88;35.39;101962.50;4919324;29;20227;-76
2021/01/03 08:08:01;;;;;;;;;;;;;;;9.77;37.10;101979.28;4895661;29;19938;-73
2021/01/03 08:10:29;;;;;;;;;;;;;;;9.63;38.34;101970.53;4918457;29;19938;-74
2021/01/03 08:13:00;;;;;;;;;;;;;;;9.51;38.52;101971.44;4922086;29;19930;-73
2021/01/03 08:15:29;;;;;;;;;;;;;;;9.49;39.19;101978.50;4928826;29;20002;-74
2021/01/03 08:18:00;;;;;;;;;;;;;;;9.48;38.86;101974.09;4931212;29;19977;-74
2021/01/03 08:20:29;;;;;;;;;;;;;;;9.48;39.76;101974.09;4928633;29;19947;-74
2021/01/03 08:23:09;;;;;;;;;;;;;;;9.55;39.73;101981.13;4920016;29;19938;-74
2021/01/03 08:25:36;;;;;;;;;;;;;;;9.63;39.66;101975.81;4900610;29;19934;-74
2021/01/03 08:28:06;;;;;;;;;;;;;;;9.63;39.75;101978.47;4919428;29;19935;-74
2021/01/03 08:30:34;;;;;;;;;;;;;;;9.64;40.04;101986.38;4916671;29;19938;-74
2021/01/03 08:33:06;;;;;;;;;;;;;;;9.64;40.00;101978.44;4919063;29;20806;-74
2021/01/03 08:35:33;;;;;;;;;;;;;;;9.64;40.33;101977.59;4914062;29;20353;-74
2021/01/03 08:38:00;;;;;;;;;;;;;;;9.76;39.82;101980.16;4900166;29;20447;-74
2021/01/03 08:40:32;;;;;;;;;;;;;;;10.05;38.62;101991.50;4922010;29;20661;-74
2021/01/03 08:43:01;;;;;;;;;;;;;;;10.06;37.78;101986.19;4905088;29;20018;-73
2021/01/03 08:45:31;;;;;;;;;;;;;;;10.02;38.04;101996.78;4921141;29;19931;-74
2021/01/03 08:48:01;;;;;;;;;;;;;;;9.85;39.75;101999.50;4920594;29;19937;-73
2021/01/03 08:50:29;;;;;;;;;;;;;;;9.73;40.14;102006.59;4913578;29;19962;-74
2021/01/03 08:52:57;;;;;;;;;;;;;;;9.73;40.55;102005.72;4915456;29;19934;-74
2021/01/03 08:55:25;;;;;;;;;;;;;;;9.78;40.31;101999.53;4913114;29;19935;-73
2021/01/03 08:57:55;;;;;;;;;;;;;;;9.85;39.48;102004.78;4919394;29;19933;-74
2021/01/03 09:00:23;;;;;;;;;;;;;;;9.88;38.87;102010.94;4925102;29;19931;-74
2021/01/03 09:02:54;;;;;;;;;;;;;;;9.95;37.80;101999.47;4915964;29;19931;-73
2021/01/03 09:05:22;;;;;;;;;;;;;;;10.03;37.37;101994.13;4915139;29;20542;-73
2021/01/03 09:07:51;;;;;;;;;;;;;;;10.12;37.19;102003.78;4919385;29;19927;-73
2021/01/03 09:10:24;;;;;;;;;;;;;;;10.22;37.01;102007.25;4920811;29;19945;-73
2021/01/03 09:12:51;;;;;;;;;;;;;;;10.26;36.16;102007.22;4922026;29;19954;-74
2021/01/03 09:15:21;;;;;;;;;;;;;;;10.30;35.81;102006.31;4921687;29;19935;-73
2021/01/03 09:17:59;;;;;;;;;;;;;;;10.37;35.98;102006.31;4919679;29;19973;-73
2021/01/03 09:20:32;;;;;;;;;;;;;;;10.40;35.97;102009.81;4918806;29;20010;-73
2021/01/03 09:23:05;;;;;;;;;;;;;;;10.45;35.70;102015.06;4922117;29;20303;-74
2021/01/03 09:25:34;;;;;;;;;;;;;;;10.44;35.65;102010.66;4919385;29;20456;-74
2021/01/03 09:28:08;;;;;;;;;;;;;;;10.44;35.66;102006.25;4920837;29;19930;-74
2021/01/03 09:30:37;;;;;;;;;;;;;;;10.42;35.39;102010.66;4921588;29;19934;-74
2021/01/03 09:33:07;;;;;;;;;;;;;;;10.41;35.57;102023.91;4916484;29;20340;-74
2021/01/03 10:01:30;;;;;;;;;;;;;;;10.60;36.29;102029.97;4879897;29;20052;-78
2021/01/03 10:04:12;;;;;;;;;;;;;;;10.58;36.49;102037.03;4863641;29;20070;-80
2021/01/03 10:06:41;;;;;;;;;;;;;;;10.54;36.24;102028.22;4890482;29;20470;-78
2021/01/03 10:09:10;;;;;;;;;;;;;;;10.57;35.82;102036.16;4886043;29;20405;-79
2021/01/03 10:11:37;;;;;;;;;;;;;;;10.58;35.50;102029.09;4879193;29;19935;-80
2021/01/03 10:14:05;;;;;;;;;;;;;;;10.58;35.60;102031.75;4886068;29;19942;-79
2021/01/03 10:16:35;;;;;;;;;;;;;;;10.58;34.97;102026.44;4882393;29;19937;-79
2021/01/03 10:19:13;;;;;;;;;;;;;;;10.67;35.20;102038.75;4887393;29;20026;-81
2021/01/03 10:21:40;;;;;;;;;;;;;;;10.93;34.26;102035.91;4890425;29;19942;-79
2021/01/03 10:24:12;;;;;;;;;;;;;;;11.56;33.31;102022.03;4888544;29;19935;-81
2021/01/03 10:26:39;;;;;;;;;;;;;;;11.59;33.46;102023.78;4885404;29;20311;-81
2021/01/03 10:29:07;;;;;;;;;;;;;;;11.81;33.23;102029.72;4884457;29;19931;-79
2021/01/03 10:31:39;;;;;;;;;;;;;;;12.00;32.41;102021.56;4881340;29;20034;-80
2021/01/03 10:34:06;;;;;;;;;;;;;;;12.01;32.62;102033.91;4878931;29;19958;-79
2021/01/03 10:36:33;;;;;;;;;;;;;;;11.75;33.16;102027.13;4872165;29;20665;-79
2021/01/03 10:39:00;;;;;;;;;;;;;;;12.36;32.19;102036.09;4878865;29;22588;-80
2021/01/03 10:41:31;;;;;;;;;;;;;;;11.88;33.08;102031.38;4885448;29;20263;-81
2021/01/03 10:44:01;;;;;;;;;;;;;;;11.86;33.31;102037.59;4868713;29;19958;-80
2021/01/03 10:46:28;;;;;;;;;;;;;;;11.78;33.97;102045.66;4873925;29;20462;-83
2021/01/03 10:48:56;;;;;;;;;;;;;;;11.30;35.57;102041.72;4894960;29;20363;-79
2021/01/03 10:51:33;;;;;;;;;;;;;;;11.12;36.88;102052.50;4891995;29;19939;-78
2021/01/03 10:54:01;;;;;;;;;;;;;;;11.08;37.40;102043.72;4890606;29;22717;-81
2021/01/03 10:56:28;;;;;;;;;;;;;;;11.43;36.50;102039.84;4888913;29;20469;-81
2021/01/03 10:58:55;;;;;;;;;;;;;;;11.88;34.85;102039.31;4885990;29;19961;-81
2021/01/03 11:01:22;;;;;;;;;;;;;;;11.94;34.48;102039.25;4885711;29;20028;-79
2021/01/03 11:03:50;;;;;;;;;;;;;;;12.44;33.39;102038.63;4871974;29;21143;-80
2021/01/03 11:06:48;;;;;;;;;;;;;;;12.87;32.15;102037.97;4893564;29;21744;-80
2021/01/03 11:09:16;;;;;;;;;;;;;;;13.06;31.78;102040.31;4889579;29;19931;-79
2021/01/03 11:11:44;;;;;;;;;;;;;;;13.41;31.04;102038.84;4887972;29;20777;-81
2021/01/03 11:14:13;;;;;;;;;;;;;;;13.01;31.57;102052.78;4880397;29;19942;-80
2021/01/03 11:16:41;;;;;;;;;;;;;;;12.76;32.32;102047.88;4861356;29;19943;-80
2021/01/03 11:19:09;;;;;;;;;;;;;;;12.69;32.21;102052.41;4889928;29;20433;-80
2021/01/03 11:21:37;;;;;;;;;;;;;;;12.27;33.21;102047.69;4892399;29;20390;-79
2021/01/03 11:24:05;;;;;;;;;;;;;;;12.11;33.37;102033.78;4873680;29;19931;-80
2021/01/03 11:26:33;;;;;;;;;;;;;;;12.12;33.36;102038.19;4889100;29;19933;-80
2021/01/03 11:29:01;;;;;;;;;;;;;;;12.14;33.26;102043.47;4884676;29;20382;-83
2021/01/03 11:31:32;;;;;;;;;;;;;;;12.73;32.42;102042.63;4889687;29;19943;-80
2021/01/03 11:34:07;;;;;;;;;;;;;;;13.21;31.06;102040.06;4875726;29;20694;-83
2021/01/03 11:36:34;;;;;;;;;;;;;;;13.41;30.91;102037.06;4891039;29;20045;-80
2021/01/03 11:39:03;;;;;;;;;;;;;;;13.18;31.30;102036.56;4888900;29;19953;-79
2021/01/03 11:41:32;;;;;;;;;;;;;;;12.60;32.59;102040.16;4885285;29;20046;-80
2021/01/03 11:43:59;;;;;;;;;;;;;;;12.40;32.87;102037.78;4891127;29;19935;-81
2021/01/03 11:46:27;;;;;;;;;;;;;;;12.27;34.04;102037.09;4886220;29;20433;-80
2021/01/03 11:48:54;;;;;;;;;;;;;;;12.38;34.55;102034.28;4892028;29;19936;-80
2021/01/03 11:51:21;;;;;;;;;;;;;;;12.43;35.05;102036.88;4884116;29;20318;-80
2021/01/03 11:53:48;;;;;;;;;;;;;;;12.38;35.55;102039.59;4886328;29;20366;-80
2021/01/03 11:56:18;;;;;;;;;;;;;;;12.84;34.47;102026.50;4868244;29;20600;-78
2021/01/03 11:58:45;;;;;;;;;;;;;;;12.96;33.73;102023.63;4867336;29;20003;-80
2021/01/03 12:01:15;;;;;;;;;;;;;;;12.87;33.83;102032.66;4889176;29;19935;-79
2021/01/03 12:03:47;;;;;;;;;;;;;;;13.00;33.11;102037.75;4888144;29;20436;-80
2021/01/03 12:06:14;;;;;;;;;;;;;;;13.05;33.08;102036.78;4896244;29;19935;-80
2021/01/03 12:08:41;;;;;;;;;;;;;;;13.18;32.82;102037.44;4887605;29;20414;-79
2021/01/03 12:11:09;;;;;;;;;;;;;;;13.59;32.41;102040.25;4882772;29;19936;-82
2021/01/03 12:21:04;;;;;;;;;;;;;;;14.38;38.39;102044.81;4832975;29;19932;-78
2021/01/03 12:23:31;;;;;;;;;;;;;;;14.31;37.91;102045.00;4833479;29;19944;-78
2021/01/03 12:25:58;;;;;;;;;;;;;;;14.44;36.97;102050.03;4827461;29;19988;-78
2021/01/03 12:28:25;;;;;;;;;;;;;;;14.22;36.43;102043.41;4830589;29;20043;-78
2021/01/03 12:30:52;;;;;;;;;;;;;;;14.08;36.45;102054.38;4833257;29;19933;-78
2021/01/03 12:33:19;;;;;;;;;;;;;;;14.16;35.75;102044.41;4835651;29;19944;-78
2021/01/03 12:35:46;;;;;;;;;;;;;;;14.69;34.19;102043.25;4835712;29;19940;-78
2021/01/03 12:38:14;;;;;;;;;;;;;;;15.02;33.42;102051.31;4826570;29;20522;-80
2021/01/03 12:40:41;;;;;;;;;;;;;;;14.77;33.67;102049.28;4827123;29;19936;-78
2021/01/03 12:43:08;;;;;;;;;;;;;;;14.12;34.80;102042.75;4830248;29;19940;-78
2021/01/03 12:45:35;;;;;;;;;;;;;;;13.83;35.25;102046.00;4833450;29;23264;-78
2021/01/03 12:48:02;;;;;;;;;;;;;;;13.62;36.24;102048.19;4820268;29;19932;-78
2021/01/03 12:50:29;;;;;;;;;;;;;;;14.00;36.13;102045.66;4831407;29;20383;-77
2021/01/03 12:53:02;;;;;;;;;;;;;;;14.33;35.65;102053.81;4827413;29;19971;-78
2021/01/03 12:55:30;;;;;;;;;;;;;;;13.80;36.47;102040.75;4827321;29;20059;-76
2021/01/03 12:57:58;;;;;;;;;;;;;;;13.80;36.28;102044.28;4833746;29;19933;-76
2021/01/03 13:00:29;;;;;;;;;;;;;;;14.32;34.60;102041.44;4829194;29;19964;-78
2021/01/03 13:02:56;;;;;;;;;;;;;;;14.50;34.09;102040.09;4820905;29;20035;-78
2021/01/03 13:05:23;;;;;;;;;;;;;;;14.82;32.92;102043.84;4834675;29;19955;-78
2021/01/03 13:07:50;;;;;;;;;;;;;;;14.90;32.96;102055.19;4827613;29;19943;-77
2021/01/03 13:10:17;;;;;;;;;;;;;;;15.08;32.31;102043.19;4828262;29;19932;-77
2021/01/03 13:12:45;;;;;;;;;;;;;;;15.40;31.71;102034.34;4832259;29;20310;-77
2021/01/03 13:15:13;;;;;;;;;;;;;;;15.00;32.58;102043.38;4834987;29;19936;-76
2021/01/03 13:17:40;;;;;;;;;;;;;;;14.55;33.32;102043.53;4832999;29;19933;-77
2021/01/03 13:20:07;;;;;;;;;;;;;;;14.22;33.85;102044.28;4832732;29;20051;-77
2021/01/03 13:22:40;;;;;;;;;;;;;;;14.12;33.92;102053.38;4830646;29;19953;-78
2021/01/03 13:25:07;;;;;;;;;;;;;;;13.99;33.69;102052.75;4833351;29;19932;-77
2021/01/03 13:27:34;;;;;;;;;;;;;;;13.84;34.09;102048.66;4833349;29;19933;-78
2021/01/03 13:30:06;;;;;;;;;;;;;;;13.65;34.27;102047.25;4833276;29;20471;-77